Time;durP1;ratioP1;P1;durP2;ratioP2;P2;SDS_P1;SDS_P2;PMS_P1;PMS_P2;Temp;Humidity;BMP_temperature;BMP_pressure;BME280_temperature;BME280_humidity;BME280_pressure;Samples;Min_cycle;Max_cycle;Signal;HPM_P1;HPM_P2
2023/01/12 00:01:38;;;;;;;4.55;1.23;;;8.60;99.90;;;;;;5074386;28;20020;-62
2023/01/12 00:04:04;;;;;;;6.72;1.33;;;8.70;99.90;;;;;;5092394;28;20515;-62
2023/01/12 00:06:32;;;;;;;8.85;2.90;;;8.70;99.90;;;;;;5105812;28;20024;-62
2023/01/12 00:09:01;;;;;;;8.88;1.83;;;8.70;99.90;;;;;;5094160;28;20083;-62
2023/01/12 00:11:27;;;;;;;7.63;1.83;;;8.70;99.90;;;;;;5105099;28;20137;-62
2023/01/12 00:13:52;;;;;;;9.65;1.67;;;8.70;99.90;;;;;;5092064;28;20024;-63
2023/01/12 00:16:34;;;;;;;11.75;2.13;;;8.70;99.90;;;;;;5096018;28;20032;-62
2023/01/12 00:19:00;;;;;;;6.75;1.70;;;8.70;99.90;;;;;;5098715;28;20470;-63
2023/01/12 00:21:25;;;;;;;9.73;2.42;;;8.70;99.90;;;;;;5111241;28;20023;-62
2023/01/12 00:23:51;;;;;;;13.55;1.85;;;8.70;99.90;;;;;;5092268;28;20026;-62
2023/01/12 00:26:16;;;;;;;10.70;2.33;;;8.80;99.90;;;;;;5098061;28;20444;-63
2023/01/12 00:28:42;;;;;;;16.65;2.17;;;8.80;99.90;;;;;;5078996;28;20047;-63
2023/01/12 00:31:09;;;;;;;12.27;1.70;;;8.70;99.90;;;;;;5091885;28;20028;-62
2023/01/12 00:33:36;;;;;;;12.40;2.25;;;8.80;99.90;;;;;;5091929;28;20501;-62
2023/01/12 00:36:07;;;;;;;11.55;3.17;;;8.80;99.90;;;;;;5099291;28;20103;-62
2023/01/12 00:38:37;;;;;;;10.90;3.05;;;8.80;99.90;;;;;;5097737;28;20048;-63
2023/01/12 00:41:10;;;;;;;13.15;2.75;;;8.80;99.90;;;;;;5074611;28;20106;-63
2023/01/12 00:46:29;;;;;;;13.50;3.20;;;8.80;99.90;;;;;;5092721;28;20047;-63
2023/01/12 00:48:54;;;;;;;15.13;3.75;;;8.90;99.90;;;;;;5092275;28;20028;-63
2023/01/12 00:51:20;;;;;;;16.02;3.15;;;8.90;99.90;;;;;;5098113;28;20031;-62
2023/01/12 00:53:45;;;;;;;14.98;3.35;;;8.90;99.90;;;;;;5111822;28;20031;-63
2023/01/12 00:56:11;;;;;;;19.40;4.40;;;8.80;99.90;;;;;;5096710;28;20070;-63
2023/01/12 00:58:36;;;;;;;19.33;4.20;;;8.80;99.90;;;;;;5074890;28;20121;-62
2023/01/12 01:01:07;;;;;;;17.80;3.92;;;8.80;99.90;;;;;;5076535;28;20016;-63
2023/01/12 01:03:34;;;;;;;15.43;4.18;;;8.90;99.90;;;;;;5092891;28;20070;-63
2023/01/12 01:06:06;;;;;;;18.50;3.85;;;8.90;99.90;;;;;;5092649;28;20021;-62
2023/01/12 01:08:35;;;;;;;17.55;3.33;;;8.90;99.90;;;;;;5092932;28;20051;-62
2023/01/12 01:11:08;;;;;;;21.38;4.72;;;8.90;99.90;;;;;;5106055;28;20031;-63
2023/01/12 01:13:35;;;;;;;16.52;3.05;;;8.90;99.90;;;;;;5100611;28;20016;-62
2023/01/12 01:16:02;;;;;;;14.63;3.15;;;8.90;99.90;;;;;;5094811;28;20031;-62
2023/01/12 01:18:28;;;;;;;14.63;2.97;;;8.90;99.90;;;;;;5082883;28;20019;-63
2023/01/12 01:20:54;;;;;;;13.18;3.10;;;9.00;99.90;;;;;;5094623;28;20381;-63
2023/01/12 01:23:21;;;;;;;13.90;2.95;;;8.90;99.90;;;;;;5091565;28;20020;-63
2023/01/12 01:25:46;;;;;;;16.33;3.50;;;8.90;99.90;;;;;;5091154;28;20039;-63
2023/01/12 01:28:14;;;;;;;17.42;3.08;;;8.90;99.90;;;;;;5072850;28;20107;-63
2023/01/12 01:30:39;;;;;;;19.88;3.05;;;8.90;99.90;;;;;;5073126;28;20070;-63
2023/01/12 01:33:05;;;;;;;12.05;3.33;;;8.90;99.90;;;;;;5091534;28;20032;-63
2023/01/12 01:35:30;;;;;;;16.92;3.13;;;8.80;99.90;;;;;;5093998;28;20047;-63
2023/01/12 01:37:56;;;;;;;16.23;3.63;;;8.80;99.90;;;;;;5111094;28;20033;-63
2023/01/12 01:40:22;;;;;;;13.48;2.92;;;8.80;99.90;;;;;;5110905;28;20020;-63
2023/01/12 01:42:47;;;;;;;17.13;3.15;;;8.80;99.90;;;;;;5130572;27;20023;-63
2023/01/12 01:45:15;;;;;;;20.58;3.78;;;8.80;99.90;;;;;;5113316;28;20023;-63
2023/01/12 01:47:54;;;;;;;14.10;2.80;;;8.80;99.90;;;;;;5104661;28;20019;-63
2023/01/12 01:50:34;;;;;;;15.53;2.77;;;8.80;99.90;;;;;;5106120;28;20055;-63
2023/01/12 01:53:03;;;;;;;13.70;3.13;;;8.80;99.90;;;;;;5107315;28;20070;-64
2023/01/12 01:55:38;;;;;;;13.73;3.42;;;8.70;99.90;;;;;;5105679;28;20028;-64
2023/01/12 01:58:15;;;;;;;15.52;2.83;;;8.70;99.90;;;;;;5109125;28;20020;-63
2023/01/12 02:00:43;;;;;;;19.00;4.32;;;8.70;99.90;;;;;;5114310;28;20016;-63
2023/01/12 02:03:11;;;;;;;11.35;3.33;;;8.60;99.90;;;;;;5092663;28;20015;-64
2023/01/12 02:05:42;;;;;;;13.27;2.70;;;8.60;99.90;;;;;;5101569;28;20237;-63
2023/01/12 02:08:33;;;;;;;18.75;3.40;;;8.60;99.90;;;;;;5077284;28;20055;-63
2023/01/12 02:11:00;;;;;;;19.50;3.10;;;8.60;99.90;;;;;;5068080;28;20024;-64
2023/01/12 02:16:24;;;;;;;14.70;3.08;;;8.60;99.90;;;;;;5056899;28;20048;-64
2023/01/12 02:19:14;;;;;;;14.40;2.50;;;8.60;99.90;;;;;;5056149;28;20104;-64
2023/01/12 02:21:52;;;;;;;15.90;3.47;;;8.60;99.90;;;;;;5055175;28;20016;-64
2023/01/12 02:24:55;;;;;;;11.95;2.95;;;8.60;99.90;;;;;;5055400;28;20367;-64
2023/01/12 02:27:52;;;;;;;16.15;2.58;;;8.60;99.90;;;;;;5058239;28;20032;-64
2023/01/12 02:30:48;;;;;;;17.08;3.33;;;8.60;99.90;;;;;;5060270;28;20066;-64
2023/01/12 02:33:46;;;;;;;19.52;2.85;;;8.60;99.90;;;;;;5054802;28;20083;-64
2023/01/12 02:36:24;;;;;;;17.25;2.85;;;8.60;99.90;;;;;;5053442;28;20051;-64
2023/01/12 02:39:31;;;;;;;18.30;2.45;;;8.60;99.90;;;;;;5055832;28;20021;-64
2023/01/12 02:42:40;;;;;;;16.17;2.53;;;8.60;99.90;;;;;;5056901;28;20021;-64
2023/01/12 02:45:18;;;;;;;19.40;2.88;;;8.50;99.90;;;;;;5065186;28;20032;-65
2023/01/12 02:47:54;;;;;;;14.55;4.03;;;8.50;99.90;;;;;;5067074;28;20099;-65
2023/01/12 02:50:32;;;;;;;21.50;4.15;;;8.50;99.90;;;;;;5062078;28;20025;-65
2023/01/12 02:53:06;;;;;;;17.02;3.35;;;8.50;99.90;;;;;;5065831;28;20378;-65
2023/01/12 02:55:33;;;;;;;15.13;2.97;;;8.50;99.90;;;;;;5061452;28;20052;-65
2023/01/12 02:57:59;;;;;;;15.30;2.45;;;8.50;99.90;;;;;;5072876;28;20096;-66
2023/01/12 03:00:26;;;;;;;17.02;3.40;;;8.50;99.90;;;;;;5063546;28;20072;-66
2023/01/12 03:02:51;;;;;;;14.82;2.72;;;8.50;99.90;;;;;;5069133;28;20370;-65
2023/01/12 03:05:17;;;;;;;20.75;3.72;;;8.50;99.90;;;;;;5061698;28;20561;-66
2023/01/12 03:07:57;;;;;;;20.08;3.78;;;8.50;99.90;;;;;;5051118;28;20045;-66
2023/01/12 03:10:25;;;;;;;12.70;2.85;;;8.60;99.90;;;;;;5071306;28;20017;-66
2023/01/12 03:12:53;;;;;;;19.27;2.65;;;8.50;99.90;;;;;;5060473;28;20442;-66
2023/01/12 03:15:22;;;;;;;22.38;3.35;;;8.50;99.90;;;;;;5051575;28;20025;-66
2023/01/12 03:18:07;;;;;;;14.93;3.13;;;8.50;99.90;;;;;;5051477;28;20025;-66
2023/01/12 03:20:37;;;;;;;22.25;3.30;;;8.60;99.90;;;;;;5053175;28;20421;-66
2023/01/12 03:23:10;;;;;;;20.48;3.75;;;8.50;99.90;;;;;;5054764;28;20020;-66
2023/01/12 03:25:38;;;;;;;21.63;3.33;;;8.60;99.90;;;;;;5064035;28;20017;-66
2023/01/12 03:28:06;;;;;;;12.50;2.33;;;8.50;99.90;;;;;;5054130;28;20031;-66
2023/01/12 03:30:45;;;;;;;17.65;2.33;;;8.50;99.90;;;;;;5052769;28;20035;-66
2023/01/12 03:33:12;;;;;;;14.02;2.60;;;8.50;99.90;;;;;;5054365;28;20286;-66
2023/01/12 03:35:53;;;;;;;13.30;2.55;;;8.50;99.90;;;;;;5068597;28;20025;-65
2023/01/12 03:38:26;;;;;;;14.32;3.20;;;8.50;99.90;;;;;;5057887;28;20555;-65
2023/01/12 03:41:21;;;;;;;16.88;3.22;;;8.50;99.90;;;;;;5051058;28;20044;-66
2023/01/12 03:43:51;;;;;;;12.52;2.20;;;8.50;99.90;;;;;;5049302;28;20024;-65
2023/01/12 03:46:27;;;;;;;13.20;2.42;;;8.50;99.90;;;;;;5058544;28;20048;-65
2023/01/12 03:49:00;;;;;;;19.92;2.80;;;8.50;99.90;;;;;;5052120;28;20116;-65
2023/01/12 03:51:31;;;;;;;14.18;2.10;;;8.50;99.90;;;;;;5053062;28;20031;-66
2023/01/12 03:53:57;;;;;;;13.68;2.80;;;8.50;99.90;;;;;;5062350;28;20444;-65
2023/01/12 03:56:27;;;;;;;14.07;2.70;;;8.50;99.90;;;;;;5065239;28;20100;-66
2023/01/12 03:58:53;;;;;;;16.88;2.25;;;8.50;99.90;;;;;;5065539;28;20014;-66
2023/01/12 04:01:18;;;;;;;12.05;2.03;;;8.50;99.90;;;;;;5050826;28;20032;-65
2023/01/12 04:03:44;;;;;;;11.63;2.28;;;8.50;99.90;;;;;;5069813;28;20082;-66
2023/01/12 04:06:10;;;;;;;11.80;1.90;;;8.50;99.90;;;;;;5067766;28;20029;-65
2023/01/12 04:08:35;;;;;;;12.88;2.63;;;8.50;99.90;;;;;;5093828;28;20043;-66
2023/01/12 04:12:08;;;;;;;17.85;2.30;;;8.50;99.90;;;;;;5099334;28;20488;-65
2023/01/12 04:13:47;;;;;;;15.18;3.03;;;8.50;99.90;;;;;;5111519;28;20023;-65
2023/01/12 04:16:12;;;;;;;19.85;3.67;;;8.50;99.90;;;;;;5102320;28;20035;-65
2023/01/12 04:18:38;;;;;;;10.77;1.95;;;8.50;99.90;;;;;;5092246;28;20039;-65
2023/01/12 04:21:03;;;;;;;9.88;1.98;;;8.50;99.90;;;;;;5092550;28;20016;-65
2023/01/12 04:23:29;;;;;;;14.85;2.40;;;8.50;99.90;;;;;;5100770;28;20058;-66
2023/01/12 04:25:54;;;;;;;11.68;1.75;;;8.40;99.90;;;;;;5111685;28;20484;-65
2023/01/12 04:28:20;;;;;;;13.10;2.05;;;8.40;99.90;;;;;;5103313;28;20085;-65
2023/01/12 04:30:45;;;;;;;8.27;1.58;;;8.40;99.90;;;;;;5093796;28;20036;-65
2023/01/12 04:33:11;;;;;;;11.13;1.73;;;8.40;99.90;;;;;;5103217;28;20054;-65
2023/01/12 04:35:36;;;;;;;16.52;2.85;;;8.40;99.90;;;;;;5073897;28;20110;-65
2023/01/12 04:38:06;;;;;;;11.52;2.08;;;8.40;99.90;;;;;;5091549;28;20587;-65
2023/01/12 04:40:32;;;;;;;8.93;1.60;;;8.40;99.90;;;;;;5073512;28;20012;-65
2023/01/12 04:43:00;;;;;;;10.50;1.80;;;8.40;99.90;;;;;;5079504;28;20438;-65
2023/01/12 04:45:27;;;;;;;14.55;2.38;;;8.40;99.90;;;;;;5090104;28;20016;-66
2023/01/12 04:47:53;;;;;;;14.50;2.15;;;8.40;99.90;;;;;;5073213;28;20051;-66
2023/01/12 04:50:18;;;;;;;13.10;2.05;;;8.40;99.90;;;;;;5102835;28;20051;-66
2023/01/12 04:52:44;;;;;;;14.73;2.20;;;8.40;99.90;;;;;;5076362;28;20119;-65
2023/01/12 04:55:10;;;;;;;15.30;2.92;;;8.50;99.90;;;;;;5091305;28;20020;-66
2023/01/12 04:57:36;;;;;;;16.42;2.78;;;8.40;99.90;;;;;;5100084;28;20024;-65
2023/01/12 05:00:03;;;;;;;12.43;3.03;;;8.40;99.90;;;;;;5096005;28;20073;-65
2023/01/12 05:02:29;;;;;;;14.60;1.85;;;8.40;99.90;;;;;;5097780;28;20011;-65
2023/01/12 05:04:54;;;;;;;13.57;2.28;;;8.50;99.90;;;;;;5100136;28;20510;-65
2023/01/12 05:07:20;;;;;;;10.63;1.85;;;8.50;99.90;;;;;;5117371;28;20024;-65
2023/01/12 05:12:30;;;;;;;8.55;1.48;;;8.50;99.90;;;;;;5096778;28;20042;-65
2023/01/12 05:14:55;;;;;;;12.48;1.63;;;8.60;99.90;;;;;;5093317;28;20032;-65
2023/01/12 05:17:21;;;;;;;13.80;2.58;;;8.60;99.90;;;;;;5097719;28;20046;-65
2023/01/12 05:19:48;;;;;;;9.48;2.13;;;8.60;99.90;;;;;;5101944;28;20069;-66
2023/01/12 05:22:14;;;;;;;14.32;2.38;;;8.50;99.90;;;;;;5101614;28;20077;-66
2023/01/12 05:24:39;;;;;;;14.07;2.25;;;8.50;99.90;;;;;;5082924;28;20016;-66
2023/01/12 05:27:05;;;;;;;10.55;2.17;;;8.60;99.90;;;;;;5110985;28;20079;-66
2023/01/12 05:29:30;;;;;;;13.77;1.73;;;8.60;99.90;;;;;;5101249;28;20020;-66
2023/01/12 05:31:56;;;;;;;16.33;1.98;;;8.60;99.90;;;;;;5103315;28;20030;-65
2023/01/12 05:34:21;;;;;;;14.20;2.33;;;8.60;99.90;;;;;;5109890;28;20485;-66
2023/01/12 05:36:47;;;;;;;7.97;1.10;;;8.50;99.90;;;;;;5098572;28;20032;-66
2023/01/12 05:39:13;;;;;;;7.82;2.05;;;8.60;99.90;;;;;;5109637;28;20053;-65
2023/01/12 05:43:48;;;;;;;12.32;1.20;;;8.60;99.90;;;;;;5085629;28;20046;-66
2023/01/12 05:44:27;;;;;;;8.88;1.65;;;8.60;99.90;;;;;;5111997;28;20023;-66
2023/01/12 05:46:53;;;;;;;10.35;1.63;;;8.60;99.90;;;;;;5104559;28;20028;-66
2023/01/12 05:49:18;;;;;;;9.93;1.67;;;8.60;99.90;;;;;;5110843;28;20027;-66
2023/01/12 05:51:44;;;;;;;10.30;1.85;;;8.60;99.90;;;;;;5093438;28;20123;-66
2023/01/12 05:54:09;;;;;;;9.57;1.27;;;8.60;99.90;;;;;;5079340;28;20404;-66
2023/01/12 05:56:35;;;;;;;9.55;1.80;;;8.60;99.90;;;;;;5094699;28;20396;-66
2023/01/12 05:59:03;;;;;;;8.30;0.93;;;8.60;99.90;;;;;;5108232;28;20012;-65
2023/01/12 06:01:29;;;;;;;9.30;1.30;;;8.60;99.90;;;;;;5094545;28;20373;-66
2023/01/12 06:03:59;;;;;;;7.07;1.25;;;8.60;99.90;;;;;;5101582;28;20073;-66
2023/01/12 06:06:26;;;;;;;9.88;1.25;;;8.70;99.90;;;;;;5099592;28;20028;-66
2023/01/12 06:08:53;;;;;;;11.40;1.67;;;8.60;99.90;;;;;;5094338;28;20055;-66
2023/01/12 06:14:04;;;;;;;9.52;1.17;;;8.60;99.90;;;;;;5094818;28;20028;-66
2023/01/12 06:16:29;;;;;;;9.82;2.03;;;8.70;99.90;;;;;;5094653;28;20522;-66
2023/01/12 06:18:55;;;;;;;8.15;0.95;;;8.70;99.90;;;;;;5094880;28;20027;-66
2023/01/12 06:21:22;;;;;;;7.00;1.30;;;8.70;99.90;;;;;;5095565;28;20024;-66
2023/01/12 06:23:47;;;;;;;8.57;1.27;;;8.70;99.90;;;;;;5095284;28;20075;-65
2023/01/12 06:26:13;;;;;;;8.68;1.25;;;8.70;99.90;;;;;;5094330;28;20469;-66
2023/01/12 06:28:39;;;;;;;8.85;1.65;;;8.70;99.90;;;;;;5093599;28;20042;-66
2023/01/12 06:31:08;;;;;;;9.85;0.95;;;8.70;99.90;;;;;;5094341;28;20008;-66
2023/01/12 06:33:34;;;;;;;10.05;1.52;;;8.70;99.90;;;;;;5094641;28;20027;-66
2023/01/12 06:36:00;;;;;;;6.88;1.10;;;8.70;99.90;;;;;;5094284;28;20160;-66
2023/01/12 06:38:27;;;;;;;5.88;1.13;;;8.70;99.90;;;;;;5093341;28;20016;-67
2023/01/12 06:40:56;;;;;;;5.55;1.08;;;8.80;99.90;;;;;;5084795;28;20016;-66
2023/01/12 06:43:22;;;;;;;4.72;1.00;;;8.80;99.90;;;;;;5095208;28;20020;-66
2023/01/12 06:45:47;;;;;;;7.15;1.20;;;8.80;99.90;;;;;;5108776;28;20016;-66
2023/01/12 06:48:13;;;;;;;6.80;1.17;;;8.80;99.90;;;;;;5124250;27;20023;-66
2023/01/12 06:50:38;;;;;;;6.50;1.85;;;8.80;99.90;;;;;;5098343;28;20538;-66
2023/01/12 06:53:05;;;;;;;6.55;1.50;;;8.80;99.90;;;;;;5100590;28;20027;-66
2023/01/12 06:55:31;;;;;;;6.20;1.50;;;8.90;99.90;;;;;;5080446;28;20119;-66
2023/01/12 06:58:01;;;;;;;10.27;2.05;;;8.90;99.90;;;;;;5102218;28;20456;-66
2023/01/12 07:00:27;;;;;;;4.90;1.73;;;8.90;99.90;;;;;;5093459;28;20208;-66
2023/01/12 07:02:52;;;;;;;4.60;1.83;;;8.90;99.90;;;;;;5075450;28;20502;-66
2023/01/12 07:05:18;;;;;;;8.10;2.42;;;8.90;99.90;;;;;;5074934;28;20077;-66
2023/01/12 07:07:44;;;;;;;6.57;1.65;;;9.00;99.90;;;;;;5087630;28;20043;-66
2023/01/12 07:10:12;;;;;;;6.75;2.05;;;9.00;99.90;;;;;;5105877;28;20020;-66
2023/01/12 07:12:38;;;;;;;5.57;1.90;;;9.00;99.90;;;;;;5128499;27;20039;-66
2023/01/12 07:15:05;;;;;;;6.55;2.30;;;9.00;99.90;;;;;;5092876;28;20055;-66
2023/01/12 07:17:30;;;;;;;5.60;2.28;;;9.00;99.90;;;;;;5106156;28;20391;-66
2023/01/12 07:19:56;;;;;;;7.38;2.38;;;9.00;99.90;;;;;;5107465;28;20533;-66
2023/01/12 07:22:21;;;;;;;3.85;2.33;;;9.00;99.90;;;;;;5110991;28;20031;-66
2023/01/12 07:24:47;;;;;;;3.58;2.00;;;9.10;99.90;;;;;;5092950;28;20020;-66
2023/01/12 07:27:12;;;;;;;4.97;2.22;;;9.10;99.90;;;;;;5102069;28;20044;-66
2023/01/12 07:29:38;;;;;;;3.75;2.45;;;9.10;99.90;;;;;;5092740;28;20063;-66
2023/01/12 07:32:04;;;;;;;4.13;2.13;;;9.10;99.90;;;;;;5078663;28;20019;-67
2023/01/12 07:34:30;;;;;;;6.70;2.42;;;9.10;99.90;;;;;;5092950;28;20434;-67
2023/01/12 07:36:55;;;;;;;4.13;2.15;;;9.20;99.90;;;;;;5074102;28;20485;-67
2023/01/12 07:39:21;;;;;;;7.07;2.25;;;9.20;99.90;;;;;;5078144;28;20024;-67
2023/01/12 07:44:30;;;;;;;6.85;2.28;;;9.20;99.90;;;;;;5106531;28;20031;-67
2023/01/12 07:46:58;;;;;;;5.95;2.70;;;9.20;99.90;;;;;;5111475;28;20023;-67
2023/01/12 07:49:24;;;;;;;5.15;2.50;;;9.20;99.90;;;;;;5110988;28;20019;-66
2023/01/12 07:51:52;;;;;;;5.55;2.75;;;9.20;99.90;;;;;;5098407;28;20026;-67
2023/01/12 07:54:18;;;;;;;4.18;3.00;;;9.20;99.90;;;;;;5082776;28;20111;-67
2023/01/12 07:56:43;;;;;;;6.93;3.30;;;9.20;99.90;;;;;;5073694;28;20111;-67
2023/01/12 07:59:09;;;;;;;5.63;3.50;;;9.20;99.90;;;;;;5092328;28;20020;-66
2023/01/12 08:01:34;;;;;;;7.13;3.30;;;9.20;99.90;;;;;;5105390;28;20015;-67
2023/01/12 08:04:00;;;;;;;5.15;3.60;;;9.30;99.90;;;;;;5092592;28;20431;-67
2023/01/12 08:06:25;;;;;;;4.28;3.08;;;9.30;99.90;;;;;;5104939;28;20030;-67
2023/01/12 08:08:53;;;;;;;3.97;2.75;;;9.30;99.90;;;;;;5092372;28;20044;-67
2023/01/12 08:11:19;;;;;;;5.40;2.67;;;9.30;99.90;;;;;;5073344;28;20023;-66
2023/01/12 08:13:44;;;;;;;5.35;2.67;;;9.30;99.90;;;;;;5110087;28;20497;-67
2023/01/12 08:16:21;;;;;;;6.10;2.38;;;9.30;99.90;;;;;;5107424;28;20016;-67
2023/01/12 08:18:57;;;;;;;3.58;2.22;;;9.30;99.90;;;;;;5106031;28;20397;-66
2023/01/12 08:21:28;;;;;;;5.03;2.65;;;9.40;99.90;;;;;;5105425;28;20024;-67
2023/01/12 08:23:59;;;;;;;3.83;2.45;;;9.40;99.90;;;;;;5102778;28;20134;-67
2023/01/12 08:26:34;;;;;;;4.93;2.25;;;9.40;99.90;;;;;;5103991;28;20028;-67
2023/01/12 08:29:13;;;;;;;4.50;2.38;;;9.40;99.90;;;;;;5100423;28;20012;-67
2023/01/12 08:31:39;;;;;;;4.38;2.40;;;9.40;99.90;;;;;;5103501;28;20047;-67
2023/01/12 08:34:07;;;;;;;5.18;2.08;;;9.40;99.90;;;;;;5106934;28;20019;-67
2023/01/12 08:36:33;;;;;;;3.20;1.60;;;9.40;99.90;;;;;;5104171;28;20030;-67
2023/01/12 08:39:00;;;;;;;5.65;2.20;;;9.50;99.90;;;;;;5106365;28;20125;-67
2023/01/12 08:41:31;;;;;;;4.07;2.13;;;9.50;99.90;;;;;;5100749;28;20544;-67
2023/01/12 08:44:16;;;;;;;5.15;2.67;;;9.50;99.90;;;;;;5082975;28;20024;-67
2023/01/12 08:46:48;;;;;;;6.82;2.97;;;9.50;99.90;;;;;;5104951;28;20015;-67
2023/01/12 08:49:16;;;;;;;5.75;3.22;;;9.50;99.90;;;;;;5107410;28;20114;-67
2023/01/12 08:51:42;;;;;;;3.35;2.70;;;9.50;99.90;;;;;;5088627;28;20031;-67
2023/01/12 08:54:09;;;;;;;4.65;2.95;;;9.50;99.90;;;;;;5084642;28;20027;-67
2023/01/12 08:56:35;;;;;;;5.18;2.78;;;9.60;99.90;;;;;;5106157;28;20477;-67
2023/01/12 08:59:01;;;;;;;5.30;3.00;;;9.60;99.90;;;;;;5103438;28;20095;-67
2023/01/12 09:01:26;;;;;;;2.97;2.28;;;9.60;99.90;;;;;;5104328;28;20020;-67
2023/01/12 09:03:54;;;;;;;5.07;2.60;;;9.60;99.90;;;;;;5101889;28;20107;-67
2023/01/12 09:06:23;;;;;;;4.82;2.60;;;9.60;99.90;;;;;;5104910;28;20051;-67
2023/01/12 09:08:56;;;;;;;4.53;2.90;;;9.60;99.90;;;;;;5106084;28;20047;-67
2023/01/12 09:11:22;;;;;;;4.70;2.95;;;9.70;99.90;;;;;;5105529;28;20031;-67
2023/01/12 09:13:48;;;;;;;3.42;2.50;;;9.70;99.90;;;;;;5099679;28;20046;-67
2023/01/12 09:16:15;;;;;;;3.60;2.38;;;9.70;99.90;;;;;;5101988;28;20572;-66
2023/01/12 09:18:41;;;;;;;3.67;2.50;;;9.70;99.90;;;;;;5109702;28;20036;-67
2023/01/12 09:21:14;;;;;;;3.63;2.53;;;9.80;99.90;;;;;;5093706;28;20401;-67
2023/01/12 09:23:40;;;;;;;3.63;2.47;;;9.80;99.90;;;;;;5091262;28;20012;-67
2023/01/12 09:26:08;;;;;;;3.92;3.10;;;9.80;99.90;;;;;;5093021;28;20167;-67
2023/01/12 09:28:34;;;;;;;5.60;2.90;;;9.80;99.90;;;;;;5093455;28;20473;-67
2023/01/12 09:31:02;;;;;;;3.63;2.90;;;9.80;99.90;;;;;;5092279;28;20485;-66
2023/01/12 09:33:29;;;;;;;4.88;2.65;;;9.80;99.90;;;;;;5093329;28;20028;-67
2023/01/12 09:36:02;;;;;;;5.28;2.90;;;9.80;99.90;;;;;;5091037;28;20021;-66
2023/01/12 09:38:28;;;;;;;6.70;2.85;;;9.80;99.90;;;;;;5077117;28;20027;-67
2023/01/12 09:40:57;;;;;;;4.68;2.60;;;9.90;99.90;;;;;;5091199;28;20449;-67
2023/01/12 09:49:11;;;;;;;4.93;2.55;;;9.90;99.90;;;;;;5091918;28;20035;-66
2023/01/12 09:51:44;;;;;;;4.97;2.50;;;9.90;99.90;;;;;;5101751;28;20024;-66
2023/01/12 09:54:10;;;;;;;4.15;2.13;;;9.90;99.90;;;;;;5090662;28;20097;-67
2023/01/12 09:56:41;;;;;;;3.80;2.40;;;9.90;99.90;;;;;;5091283;28;20435;-67
2023/01/12 09:59:13;;;;;;;3.28;1.73;;;9.90;99.90;;;;;;5092785;28;20069;-67
2023/01/12 10:01:39;;;;;;;3.30;1.90;;;10.00;99.90;;;;;;5108459;28;20096;-67
2023/01/12 10:04:05;;;;;;;3.47;2.03;;;10.00;99.90;;;;;;5076684;28;20048;-66
2023/01/12 10:06:33;;;;;;;2.72;1.98;;;10.00;99.90;;;;;;5107931;28;20085;-67
2023/01/12 10:09:11;;;;;;;3.47;1.90;;;10.00;99.90;;;;;;5093663;28;20040;-67
2023/01/12 10:11:57;;;;;;;2.05;1.85;;;10.00;99.90;;;;;;5089362;28;20023;-67
2023/01/12 10:14:22;;;;;;;2.63;1.60;;;10.00;99.90;;;;;;5096155;27;20094;-66
2023/01/12 10:17:13;;;;;;;4.10;2.30;;;10.00;99.90;;;;;;5092773;28;20503;-67
2023/01/12 10:19:45;;;;;;;3.33;1.70;;;10.10;99.90;;;;;;5076331;28;20027;-66
2023/01/12 10:22:35;;;;;;;2.45;1.77;;;10.10;99.90;;;;;;5103821;27;20020;-67
2023/01/12 10:25:05;;;;;;;3.17;2.03;;;10.10;99.90;;;;;;5091891;28;20557;-67
2023/01/12 10:27:36;;;;;;;3.35;2.65;;;10.10;99.90;;;;;;5084898;28;20024;-66
2023/01/12 10:30:15;;;;;;;3.60;1.80;;;10.10;99.90;;;;;;5109962;28;20400;-67
2023/01/12 10:32:41;;;;;;;1.95;1.70;;;10.20;99.90;;;;;;5112705;27;20494;-67
2023/01/12 10:35:13;;;;;;;2.30;1.83;;;10.20;99.90;;;;;;5092192;28;20032;-67
2023/01/12 10:37:47;;;;;;;2.72;1.88;;;10.20;99.90;;;;;;5099906;27;20031;-67
2023/01/12 10:40:31;;;;;;;3.10;2.17;;;10.20;99.90;;;;;;5106453;28;20034;-67
2023/01/12 10:43:22;;;;;;;3.03;1.70;;;10.20;99.90;;;;;;5107331;28;20035;-67
2023/01/12 10:45:53;;;;;;;4.15;1.60;;;10.30;99.90;;;;;;5092619;28;20172;-66
2023/01/12 10:48:21;;;;;;;1.88;1.33;;;10.30;99.90;;;;;;5086153;28;20049;-67
2023/01/12 10:51:05;;;;;;;1.58;1.10;;;10.20;99.90;;;;;;5093175;27;20528;-67
2023/01/12 10:53:39;;;;;;;2.85;1.67;;;10.30;99.90;;;;;;5104369;28;20411;-67
2023/01/12 10:56:28;;;;;;;2.00;1.48;;;10.30;99.90;;;;;;5105709;28;20608;-67
2023/01/12 10:59:07;;;;;;;2.63;1.58;;;10.30;99.90;;;;;;5093270;28;20024;-67
2023/01/12 11:01:46;;;;;;;2.67;1.80;;;10.30;99.90;;;;;;5104139;28;20032;-67
2023/01/12 11:04:25;;;;;;;2.20;1.60;;;10.30;99.90;;;;;;5111621;28;20020;-67
2023/01/12 11:06:59;;;;;;;2.20;2.00;;;10.30;99.90;;;;;;5100774;28;20027;-67
2023/01/12 11:09:26;;;;;;;2.05;1.85;;;10.30;99.90;;;;;;5111495;28;20094;-67
2023/01/12 11:11:57;;;;;;;3.80;1.70;;;10.30;99.90;;;;;;5104178;28;20124;-67
2023/01/12 11:14:30;;;;;;;1.92;1.73;;;10.30;99.90;;;;;;5082949;28;20063;-67
2023/01/12 11:17:10;;;;;;;3.10;1.90;;;10.30;99.90;;;;;;5103265;28;20019;-67
2023/01/12 11:19:41;;;;;;;2.58;2.10;;;10.30;99.90;;;;;;5100738;28;20775;-67
2023/01/12 11:22:35;;;;;;;2.47;2.13;;;10.30;99.90;;;;;;5101733;28;20024;-67
2023/01/12 11:25:05;;;;;;;2.50;2.20;;;10.40;99.90;;;;;;5107117;28;20036;-67
2023/01/12 11:27:38;;;;;;;2.13;1.92;;;10.30;99.90;;;;;;5089247;28;20366;-67
2023/01/12 11:30:19;;;;;;;2.35;1.85;;;10.40;99.90;;;;;;5084416;28;20039;-67
2023/01/12 11:33:03;;;;;;;4.40;1.88;;;10.40;99.90;;;;;;5094803;28;20388;-67
2023/01/12 11:35:59;;;;;;;2.28;1.95;;;10.40;99.90;;;;;;5103514;28;20073;-68
2023/01/12 11:38:27;;;;;;;2.88;2.05;;;10.40;99.90;;;;;;5110329;28;20023;-67
2023/01/12 11:40:57;;;;;;;2.45;1.95;;;10.40;99.90;;;;;;5093087;28;20138;-67
2023/01/12 11:43:55;;;;;;;3.17;1.90;;;10.40;99.90;;;;;;5085632;28;20068;-67
2023/01/12 11:46:25;;;;;;;2.25;1.50;;;10.40;99.90;;;;;;5105801;28;20039;-67
2023/01/12 11:49:24;;;;;;;2.33;1.90;;;10.40;99.90;;;;;;5104177;28;20030;-67
2023/01/12 11:51:56;;;;;;;3.25;1.88;;;10.40;99.90;;;;;;5111455;28;20043;-67
2023/01/12 11:54:22;;;;;;;1.88;1.55;;;10.40;99.90;;;;;;5088475;28;20112;-67
2023/01/12 11:57:00;;;;;;;2.10;1.52;;;10.50;99.90;;;;;;5091265;28;20396;-68
2023/01/12 11:59:43;;;;;;;1.48;1.20;;;10.50;99.90;;;;;;5106987;28;20074;-67
2023/01/12 12:02:35;;;;;;;2.13;1.40;;;10.50;99.90;;;;;;5101426;28;20020;-67
2023/01/12 12:05:20;;;;;;;1.58;1.33;;;10.60;99.90;;;;;;5070807;28;20043;-67
2023/01/12 12:08:06;;;;;;;1.88;1.38;;;10.60;99.90;;;;;;5086757;28;20062;-68
2023/01/12 12:10:56;;;;;;;1.65;1.10;;;10.60;99.90;;;;;;5095003;28;20110;-68
2023/01/12 12:13:27;;;;;;;1.52;1.30;;;10.60;99.90;;;;;;5104596;28;20473;-68
2023/01/12 12:16:14;;;;;;;1.30;1.10;;;10.60;99.90;;;;;;5093009;28;20465;-68
2023/01/12 12:18:49;;;;;;;1.73;1.10;;;10.60;99.90;;;;;;5095817;28;20022;-68
2023/01/12 12:21:28;;;;;;;1.50;1.10;;;10.60;99.90;;;;;;5089897;28;20028;-68
2023/01/12 12:24:06;;;;;;;1.40;1.20;;;10.60;99.90;;;;;;5074518;28;20024;-67
2023/01/12 12:26:37;;;;;;;1.33;1.10;;;10.60;99.90;;;;;;5094968;28;20024;-68
2023/01/12 12:29:22;;;;;;;2.25;1.35;;;10.70;99.90;;;;;;5095227;28;20495;-68
2023/01/12 12:32:00;;;;;;;2.15;1.60;;;10.70;99.90;;;;;;5092161;28;20477;-68
2023/01/12 12:34:48;;;;;;;2.03;1.77;;;10.70;99.90;;;;;;5091627;28;20026;-68
2023/01/12 12:37:34;;;;;;;2.70;2.00;;;10.70;99.90;;;;;;5104850;28;20043;-68
2023/01/12 12:40:24;;;;;;;2.35;1.98;;;10.70;99.90;;;;;;5073626;28;20037;-68
2023/01/12 12:46:07;;;;;;;3.47;2.50;;;10.60;99.90;;;;;;5111672;28;20039;-68
2023/01/12 12:48:39;;;;;;;3.25;2.95;;;10.60;99.90;;;;;;5100854;28;20024;-68
2023/01/12 12:51:08;;;;;;;3.15;2.83;;;10.60;99.90;;;;;;5103662;28;20024;-68
2023/01/12 12:53:38;;;;;;;2.80;2.60;;;10.60;99.90;;;;;;5091685;28;20101;-69
2023/01/12 12:56:07;;;;;;;3.40;3.00;;;10.60;99.90;;;;;;5098233;28;20024;-69
2023/01/12 12:58:45;;;;;;;3.75;3.25;;;10.60;99.90;;;;;;5094901;28;20021;-68
2023/01/12 13:01:22;;;;;;;3.40;3.10;;;10.60;99.90;;;;;;5095137;28;20020;-69
2023/01/12 13:04:02;;;;;;;3.70;2.83;;;10.50;99.90;;;;;;5072523;28;20424;-69
2023/01/12 13:06:36;;;;;;;3.00;2.70;;;10.50;99.90;;;;;;5091213;28;20012;-69
2023/01/12 13:09:21;;;;;;;3.30;2.65;;;10.50;99.90;;;;;;5079518;28;20055;-69
2023/01/12 13:11:54;;;;;;;2.40;1.98;;;10.50;99.90;;;;;;5078973;28;20073;-69
2023/01/12 13:14:25;;;;;;;1.38;1.20;;;10.40;99.90;;;;;;5072776;28;20020;-69
2023/01/12 13:16:53;;;;;;;1.88;1.20;;;10.50;99.90;;;;;;5091187;28;20056;-69
2023/01/12 13:19:40;;;;;;;1.58;1.00;;;10.40;99.90;;;;;;5091092;28;20024;-69
2023/01/12 13:22:25;;;;;;;0.93;0.82;;;10.50;99.90;;;;;;5082001;28;20489;-69
2023/01/12 13:24:52;;;;;;;1.23;0.82;;;10.50;99.90;;;;;;5077757;28;20024;-69
2023/01/12 13:27:47;;;;;;;1.77;0.88;;;10.40;99.90;;;;;;5091767;28;20024;-68
2023/01/12 13:30:27;;;;;;;1.08;0.75;;;10.50;99.90;;;;;;5092645;28;20028;-69
2023/01/12 13:33:11;;;;;;;1.08;0.80;;;10.40;99.90;;;;;;5091497;28;20074;-69
2023/01/12 13:35:39;;;;;;;3.30;1.58;;;10.40;99.90;;;;;;5092474;28;20039;-69